createdAt,value
2022-11-18T00:00:54.045Z,10.53
2022-11-18T00:03:20.513Z,10.46
2022-11-18T00:05:54.180Z,10.52
2022-11-18T00:08:20.962Z,10.55
2022-11-18T00:10:47.344Z,10.65
2022-11-18T00:13:32.514Z,10.70
2022-11-18T00:16:06.686Z,10.79
2022-11-18T00:18:33.439Z,10.81
2022-11-18T00:21:07.146Z,10.72
2022-11-18T00:23:33.613Z,10.69
2022-11-18T00:26:03.994Z,10.70
2022-11-18T00:28:30.828Z,10.69
2022-11-18T00:31:04.271Z,10.75
2022-11-18T00:33:31.072Z,10.70
2022-11-18T00:35:57.860Z,10.73
2022-11-18T00:38:24.486Z,10.74
2022-11-18T00:40:58.798Z,10.70
2022-11-18T00:43:25.260Z,10.67
2022-11-18T00:45:51.655Z,10.65
2022-11-18T00:48:21.602Z,10.65
2022-11-18T00:50:51.965Z,10.56
2022-11-18T00:53:18.770Z,10.59
2022-11-18T00:55:45.654Z,10.63
2022-11-18T00:58:15.119Z,10.64
2022-11-18T01:00:42.270Z,10.60
2022-11-18T01:03:09.332Z,10.50
2022-11-18T01:05:35.812Z,10.45
2022-11-18T01:08:02.194Z,10.43
2022-11-18T01:10:28.669Z,10.37
2022-11-18T01:13:13.877Z,10.34
2022-11-18T01:15:43.799Z,10.23
2022-11-18T01:18:10.556Z,10.15
2022-11-18T01:20:37.185Z,10.13
2022-11-18T01:23:03.945Z,10.18
2022-11-18T01:25:30.765Z,10.29
2022-11-18T01:27:57.166Z,10.23
2022-11-18T01:30:23.545Z,10.22
2022-11-18T01:32:49.922Z,10.29
2022-11-18T01:35:16.416Z,10.34
2022-11-18T01:37:42.793Z,10.38
2022-11-18T01:40:09.714Z,10.35
2022-11-18T01:42:36.270Z,10.34
2022-11-18T01:45:15.266Z,10.37
2022-11-18T01:47:44.532Z,10.41
2022-11-18T01:50:12.418Z,10.41
2022-11-18T01:52:39.853Z,10.41
2022-11-18T01:55:10.695Z,10.42
2022-11-18T01:57:37.435Z,10.43
2022-11-18T02:00:05.074Z,10.43
2022-11-18T02:02:33.692Z,10.42
2022-11-18T02:05:01.013Z,10.42
2022-11-18T02:07:27.500Z,10.44
2022-11-18T02:09:56.092Z,10.51
2022-11-18T02:12:23.165Z,10.54
2022-11-18T02:14:50.888Z,10.52
2022-11-18T02:17:23.682Z,10.45
2022-11-18T02:20:02.442Z,10.44
2022-11-18T02:22:41.047Z,10.42
2022-11-18T02:25:16.611Z,10.45
2022-11-18T02:27:55.144Z,10.50
2022-11-18T02:30:21.615Z,10.54
2022-11-18T02:32:56.266Z,10.53
2022-11-18T02:35:27.023Z,10.58
2022-11-18T02:37:57.044Z,10.54
2022-11-18T02:40:25.764Z,10.51
2022-11-18T02:42:56.643Z,10.50
2022-11-18T02:45:23.544Z,10.44
2022-11-18T02:47:50.172Z,10.46
2022-11-18T02:50:19.805Z,10.46
2022-11-18T02:52:47.434Z,10.50
2022-11-18T02:55:14.714Z,10.50
2022-11-18T02:57:43.875Z,10.50
2022-11-18T03:00:10.655Z,10.51
2022-11-18T03:02:44.387Z,10.49
2022-11-18T03:05:17.001Z,10.45
2022-11-18T03:07:46.099Z,10.33
2022-11-18T03:10:12.602Z,10.22
2022-11-18T03:12:42.014Z,10.24
2022-11-18T03:15:08.473Z,10.26
2022-11-18T03:17:44.696Z,10.27
2022-11-18T03:20:17.095Z,10.30
2022-11-18T03:22:46.525Z,10.31
2022-11-18T03:25:18.995Z,10.35
2022-11-18T03:27:54.539Z,10.38
2022-11-18T03:30:22.251Z,10.38
2022-11-18T03:32:59.950Z,10.35
2022-11-18T03:35:29.261Z,10.44
2022-11-18T03:37:59.556Z,10.38
2022-11-18T03:40:28.181Z,10.25
2022-11-18T03:42:57.720Z,10.20
2022-11-18T03:45:26.737Z,10.11
2022-11-18T03:47:56.833Z,10.22
2022-11-18T03:50:27.723Z,10.37
2022-11-18T03:52:55.093Z,10.37
2022-11-18T03:55:23.448Z,10.39
2022-11-18T03:58:10.027Z,10.40
2022-11-18T04:00:39.577Z,10.55
2022-11-18T04:03:06.132Z,10.51
2022-11-18T04:05:35.444Z,10.52
2022-11-18T04:08:03.875Z,10.43
2022-11-18T04:10:36.370Z,10.40
2022-11-18T04:13:06.650Z,10.42
2022-11-18T04:15:34.355Z,10.48
2022-11-18T04:18:00.715Z,10.42
2022-11-18T04:20:28.324Z,10.49
2022-11-18T04:22:55.082Z,10.50
2022-11-18T04:25:21.674Z,10.47
2022-11-18T04:27:48.073Z,10.55
2022-11-18T04:30:14.440Z,10.51
2022-11-18T04:32:40.804Z,10.50
2022-11-18T04:35:07.239Z,10.51
2022-11-18T04:37:33.761Z,10.48
2022-11-18T04:40:00.127Z,10.49
2022-11-18T04:42:26.585Z,10.58
2022-11-18T04:44:53.041Z,10.56
2022-11-18T04:47:19.484Z,10.36
2022-11-18T04:49:45.880Z,10.33
2022-11-18T04:52:12.411Z,10.31
2022-11-18T04:54:38.770Z,10.16
2022-11-18T04:57:05.171Z,10.24
2022-11-18T04:59:31.708Z,10.30
2022-11-18T05:01:59.327Z,10.28
2022-11-18T05:04:26.865Z,10.26
2022-11-18T05:06:53.366Z,10.16
2022-11-18T05:09:20.312Z,10.09
2022-11-18T05:12:05.525Z,10.09
2022-11-18T05:14:31.909Z,9.94
2022-11-18T05:16:59.242Z,9.96
2022-11-18T05:19:25.921Z,9.93
2022-11-18T05:21:52.759Z,9.94
2022-11-18T05:24:19.207Z,9.96
2022-11-18T05:26:46.133Z,9.97
2022-11-18T05:29:13.034Z,9.98
2022-11-18T05:31:39.421Z,10.05
2022-11-18T05:34:05.829Z,10.04
2022-11-18T05:36:32.250Z,10.00
2022-11-18T05:38:58.989Z,10.05
2022-11-18T05:41:43.963Z,10.02
2022-11-18T05:44:10.381Z,9.95
2022-11-18T05:46:36.735Z,9.93
2022-11-18T05:49:03.145Z,9.80
2022-11-18T05:51:29.561Z,9.83
2022-11-18T05:53:56.237Z,9.78
2022-11-18T05:56:25.264Z,9.90
2022-11-18T05:58:51.654Z,9.94
2022-11-18T06:01:23.239Z,9.90
2022-11-18T06:03:49.788Z,9.89
2022-11-18T06:06:17.520Z,9.84
2022-11-18T06:08:46.733Z,9.89
2022-11-18T06:11:14.632Z,9.82
2022-11-18T06:13:50.276Z,9.89
2022-11-18T06:16:19.182Z,9.87
2022-11-18T06:18:45.630Z,9.91
2022-11-18T06:21:12.343Z,9.93
2022-11-18T06:23:40.167Z,9.96
2022-11-18T06:26:07.297Z,10.00
2022-11-18T06:28:33.875Z,9.98
2022-11-18T06:31:00.262Z,10.08
2022-11-18T06:33:26.752Z,10.09
2022-11-18T06:35:53.147Z,10.08
2022-11-18T06:38:19.557Z,10.05
2022-11-18T06:40:46.053Z,10.08
2022-11-18T06:43:31.584Z,10.11
2022-11-18T06:46:16.855Z,10.11
2022-11-18T06:48:43.238Z,10.05
2022-11-18T06:51:09.677Z,10.06
2022-11-18T06:53:36.274Z,9.94
2022-11-18T06:56:09.879Z,9.93
2022-11-18T06:58:36.293Z,9.90
2022-11-18T07:01:16.283Z,9.96
2022-11-18T07:03:43.344Z,9.94
2022-11-18T07:06:10.719Z,10.00
2022-11-18T07:08:38.075Z,9.98
2022-11-18T07:11:06.217Z,10.02
2022-11-18T07:13:33.174Z,9.96
2022-11-18T07:16:09.849Z,9.98
2022-11-18T07:18:37.948Z,10.04
2022-11-18T07:21:10.144Z,10.03
2022-11-18T07:23:36.669Z,9.93
2022-11-18T07:26:03.625Z,9.98
2022-11-18T07:28:30.248Z,10.03
2022-11-18T07:31:10.167Z,9.84
2022-11-18T07:33:36.753Z,9.87
2022-11-18T07:36:04.264Z,9.76
2022-11-18T07:38:30.734Z,9.83
2022-11-18T07:41:20.001Z,9.85
2022-11-18T07:43:46.731Z,9.77
2022-11-18T07:46:13.327Z,9.87
2022-11-18T07:48:40.536Z,9.83
2022-11-18T07:51:07.469Z,9.89
2022-11-18T07:53:34.633Z,9.92
2022-11-18T07:56:00.997Z,9.86
2022-11-18T07:58:27.446Z,9.92
2022-11-18T08:00:53.825Z,9.89
2022-11-18T08:03:20.208Z,9.98
2022-11-18T08:05:46.597Z,9.98
2022-11-18T08:08:13.192Z,9.98
2022-11-18T08:10:39.577Z,10.01
2022-11-18T08:13:05.986Z,10.06
2022-11-18T08:15:32.450Z,10.14
2022-11-18T08:17:58.895Z,10.11
2022-11-18T08:20:27.240Z,10.00
2022-11-18T08:22:53.649Z,9.92
2022-11-18T08:25:20.018Z,10.02
2022-11-18T08:27:46.402Z,10.03
2022-11-18T08:30:12.990Z,10.08
2022-11-18T08:32:39.397Z,10.11
2022-11-18T08:35:10.860Z,10.13
2022-11-18T08:37:37.978Z,10.18
2022-11-18T08:40:04.746Z,10.20
2022-11-18T08:42:34.242Z,10.19
2022-11-18T08:45:01.083Z,10.26
2022-11-18T08:47:27.474Z,10.30
2022-11-18T08:49:53.851Z,10.33
2022-11-18T08:52:20.262Z,10.39
2022-11-18T08:54:46.668Z,10.37
2022-11-18T08:57:13.075Z,10.23
2022-11-18T08:59:39.471Z,10.06
2022-11-18T09:02:06.133Z,10.12
2022-11-18T09:04:32.800Z,9.77
2022-11-18T09:06:59.636Z,9.65
2022-11-18T09:09:26.071Z,9.76
2022-11-18T09:11:54.265Z,9.61
2022-11-18T09:17:07.033Z,9.83
2022-11-18T09:19:47.367Z,9.89
2022-11-18T09:22:14.593Z,9.68
2022-11-18T09:24:41.021Z,9.75
2022-11-18T09:27:13.681Z,10.14
2022-11-18T09:29:42.972Z,9.90
2022-11-18T09:32:09.358Z,10.01
2022-11-18T09:34:36.450Z,10.21
2022-11-18T09:37:03.656Z,10.36
2022-11-18T09:39:36.919Z,10.50
2022-11-18T09:42:23.557Z,10.42
2022-11-18T09:44:51.143Z,10.13
2022-11-18T09:47:20.837Z,10.09
2022-11-18T09:49:47.313Z,10.19
2022-11-18T09:52:13.708Z,10.08
2022-11-18T09:54:40.179Z,10.02
2022-11-18T09:57:26.307Z,10.11
2022-11-18T09:59:53.332Z,9.95
2022-11-18T10:02:28.689Z,10.00
2022-11-18T10:04:56.312Z,9.98
2022-11-18T10:07:30.158Z,10.08
2022-11-18T10:09:58.040Z,10.07
2022-11-18T10:12:35.717Z,10.16
2022-11-18T10:15:17.251Z,10.29
2022-11-18T10:17:44.382Z,10.40
2022-11-18T10:20:21.312Z,10.36
2022-11-18T10:22:54.733Z,10.37
2022-11-18T10:25:21.306Z,10.42
2022-11-18T10:27:48.989Z,10.42
2022-11-18T10:30:20.336Z,10.48
2022-11-18T10:32:53.593Z,10.48
2022-11-18T10:35:24.649Z,10.55
2022-11-18T10:38:07.764Z,10.67
2022-11-18T10:40:36.778Z,10.78
2022-11-18T10:43:03.199Z,10.81
2022-11-18T10:45:30.672Z,10.84
2022-11-18T10:48:16.315Z,10.83
2022-11-18T10:50:51.906Z,10.80
2022-11-18T10:53:37.531Z,10.99
2022-11-18T10:56:04.054Z,11.11
2022-11-18T10:58:31.650Z,11.09
2022-11-18T11:01:08.451Z,11.10
2022-11-18T11:03:35.877Z,11.02
2022-11-18T11:06:20.637Z,11.00
2022-11-18T11:08:51.907Z,11.05
2022-11-18T11:11:26.087Z,11.08
2022-11-18T11:13:55.286Z,11.21
2022-11-18T11:16:26.090Z,11.27
2022-11-18T11:18:56.432Z,11.33
2022-11-18T11:21:22.942Z,11.32
2022-11-18T11:23:49.316Z,11.22
2022-11-18T11:29:18.451Z,11.21
2022-11-18T11:32:00.662Z,11.26
2022-11-18T11:34:39.042Z,11.21
2022-11-18T11:37:14.562Z,11.20
2022-11-18T11:39:53.451Z,11.31
2022-11-18T11:42:38.355Z,11.40
2022-11-18T11:45:25.042Z,11.39
2022-11-18T11:47:56.941Z,11.38
2022-11-18T11:50:28.319Z,11.37
2022-11-18T11:53:13.601Z,11.36
2022-11-18T11:55:42.847Z,11.48
2022-11-18T11:58:32.626Z,11.58
2022-11-18T12:01:03.131Z,11.55
2022-11-18T12:03:38.489Z,11.61
2022-11-18T12:06:04.916Z,11.64
2022-11-18T12:08:32.045Z,11.67
2022-11-18T12:11:34.183Z,11.75
2022-11-18T12:14:06.730Z,11.53
2022-11-18T12:16:45.511Z,11.39
2022-11-18T12:19:14.523Z,11.24
2022-11-18T12:21:52.213Z,11.21
2022-11-18T12:24:31.219Z,11.18
2022-11-18T12:27:05.510Z,11.18
2022-11-18T12:29:31.990Z,11.15
2022-11-18T12:31:59.893Z,11.13
2022-11-18T12:34:26.291Z,11.04
2022-11-18T12:36:53.930Z,11.09
2022-11-18T12:39:23.473Z,11.00
2022-11-18T12:42:14.616Z,10.97
2022-11-18T12:44:42.281Z,10.89
2022-11-18T12:47:16.115Z,10.79
2022-11-18T12:49:45.259Z,10.79
2022-11-18T12:52:30.208Z,10.79
2022-11-18T12:54:58.578Z,10.80
2022-11-18T12:57:28.053Z,10.82
2022-11-18T12:59:54.860Z,10.84
2022-11-18T13:02:23.917Z,10.71
2022-11-18T13:05:02.758Z,10.76
2022-11-18T13:07:47.958Z,10.73
2022-11-18T13:10:22.584Z,10.71
2022-11-18T13:12:49.214Z,10.78
2022-11-18T13:15:35.893Z,10.77
2022-11-18T13:18:18.458Z,10.89
2022-11-18T13:20:54.228Z,10.85
2022-11-18T13:23:49.903Z,10.91
2022-11-18T13:26:19.126Z,11.04
2022-11-18T13:29:04.454Z,11.14
2022-11-18T13:31:38.666Z,11.27
2022-11-18T13:34:19.098Z,11.25
2022-11-18T13:36:46.712Z,11.11
2022-11-18T13:39:19.089Z,11.21
2022-11-18T13:41:45.667Z,11.27
2022-11-18T13:44:25.208Z,11.22
2022-11-18T13:47:04.223Z,11.18
2022-11-18T13:49:36.965Z,11.00
2022-11-18T13:52:04.948Z,10.98
2022-11-18T13:54:31.655Z,11.11
2022-11-18T13:56:58.568Z,11.20
2022-11-18T13:59:32.674Z,11.25
2022-11-18T14:02:02.103Z,11.30
2022-11-18T14:04:30.297Z,11.38
2022-11-18T14:07:15.250Z,11.46
2022-11-18T14:09:52.417Z,11.56
2022-11-18T14:12:18.832Z,11.59
2022-11-18T14:14:46.499Z,11.60
2022-11-18T14:17:20.350Z,11.59
2022-11-18T14:20:10.087Z,11.60
2022-11-18T14:22:42.098Z,11.59
2022-11-18T14:25:27.004Z,11.61
2022-11-18T14:27:57.801Z,11.60
2022-11-18T14:30:27.691Z,11.59
2022-11-18T14:33:06.112Z,11.55
2022-11-18T14:35:34.849Z,11.48
2022-11-18T14:38:30.310Z,11.45
2022-11-18T14:40:58.459Z,11.44
2022-11-18T14:43:25.108Z,11.47
2022-11-18T14:45:57.284Z,11.45
2022-11-18T14:48:29.666Z,11.45
2022-11-18T14:50:59.394Z,11.39
2022-11-18T14:53:26.281Z,11.39
2022-11-18T14:55:53.705Z,11.39
2022-11-18T14:58:20.166Z,11.41
2022-11-18T15:00:48.358Z,11.37
2022-11-18T15:03:14.964Z,11.39
2022-11-18T15:05:41.560Z,11.41
2022-11-18T15:08:08.240Z,11.35
2022-11-18T15:10:34.735Z,11.29
2022-11-18T15:13:01.145Z,11.24
2022-11-18T15:15:27.529Z,11.19
2022-11-18T15:17:54.264Z,11.15
2022-11-18T15:20:22.030Z,11.11
2022-11-18T15:22:48.479Z,11.08
2022-11-18T15:25:14.938Z,11.02
2022-11-18T15:27:41.369Z,10.97
2022-11-18T15:30:08.097Z,10.92
2022-11-18T15:32:34.495Z,10.91
2022-11-18T15:35:00.932Z,10.88
2022-11-18T15:37:27.367Z,10.87
2022-11-18T15:39:53.817Z,10.79
2022-11-18T15:42:23.266Z,10.76
2022-11-18T15:44:50.000Z,10.68
2022-11-18T15:47:16.599Z,10.58
2022-11-18T15:49:45.329Z,10.54
2022-11-18T15:52:12.219Z,10.48
2022-11-18T15:54:38.767Z,10.45
2022-11-18T15:57:05.456Z,10.42
2022-11-18T15:59:31.847Z,10.37
2022-11-18T16:01:58.288Z,10.30
2022-11-18T16:04:24.767Z,10.32
2022-11-18T16:06:51.148Z,10.31
2022-11-18T16:09:18.163Z,10.22
2022-11-18T16:12:03.612Z,10.15
2022-11-18T16:14:33.574Z,10.05
2022-11-18T16:17:00.049Z,10.15
2022-11-18T16:19:26.968Z,10.20
2022-11-18T16:21:54.478Z,10.22
2022-11-18T16:24:22.714Z,10.27
2022-11-18T16:26:49.712Z,10.32
2022-11-18T16:29:17.487Z,10.32
2022-11-18T16:31:52.477Z,10.32
2022-11-18T16:34:21.997Z,10.32
2022-11-18T16:36:59.591Z,10.30
2022-11-18T16:39:27.059Z,10.27
2022-11-18T16:42:03.885Z,10.27
2022-11-18T16:44:34.813Z,10.18
2022-11-18T16:47:01.435Z,10.24
2022-11-18T16:49:28.187Z,10.18
2022-11-18T16:51:58.044Z,10.25
2022-11-18T16:54:25.511Z,10.27
2022-11-18T16:56:53.445Z,10.34
2022-11-18T16:59:23.808Z,10.39
2022-11-18T17:01:51.303Z,10.46
2022-11-18T17:04:18.410Z,10.54
2022-11-18T17:06:46.360Z,10.59
2022-11-18T17:09:14.106Z,10.62
2022-11-18T17:11:40.765Z,10.61
2022-11-18T17:14:07.157Z,10.60
2022-11-18T17:16:33.535Z,10.57
2022-11-18T17:19:00.688Z,10.56
2022-11-18T17:21:28.306Z,10.54
2022-11-18T17:23:55.046Z,10.56
2022-11-18T17:26:22.988Z,10.57
2022-11-18T17:28:49.452Z,10.56
2022-11-18T17:31:17.231Z,10.53
2022-11-18T17:33:44.095Z,10.48
2022-11-18T17:36:11.883Z,10.42
2022-11-18T17:38:39.347Z,10.38
2022-11-18T17:41:07.783Z,10.37
2022-11-18T17:43:34.639Z,10.37
2022-11-18T17:46:01.754Z,10.37
2022-11-18T17:48:29.117Z,10.37
2022-11-18T17:51:02.661Z,10.38
2022-11-18T17:53:29.067Z,10.34
2022-11-18T17:55:58.357Z,10.29
2022-11-18T17:58:28.820Z,10.21
2022-11-18T18:00:55.300Z,10.15
2022-11-18T18:03:21.768Z,9.81
2022-11-18T18:05:48.178Z,9.63
2022-11-18T18:08:14.574Z,9.44
2022-11-18T18:10:41.115Z,9.44
2022-11-18T18:13:31.458Z,9.21
2022-11-18T18:15:58.832Z,8.96
2022-11-18T18:18:25.194Z,8.83
2022-11-18T18:20:51.602Z,8.80
2022-11-18T18:23:17.993Z,8.70
2022-11-18T18:25:44.372Z,8.82
2022-11-18T18:28:10.719Z,9.01
2022-11-18T18:30:37.119Z,9.11
2022-11-18T18:33:03.617Z,9.29
2022-11-18T18:35:30.031Z,9.38
2022-11-18T18:37:56.419Z,9.44
2022-11-18T18:40:22.886Z,9.52
2022-11-18T18:42:49.251Z,9.51
2022-11-18T18:45:34.444Z,9.50
2022-11-18T18:48:03.810Z,9.52
2022-11-18T18:50:31.647Z,9.57
2022-11-18T18:52:58.061Z,9.58
2022-11-18T18:55:24.505Z,9.58
2022-11-18T18:57:51.272Z,9.63
2022-11-18T19:00:17.845Z,9.67
2022-11-18T19:02:44.242Z,9.68
2022-11-18T19:05:10.689Z,9.73
2022-11-18T19:07:37.260Z,9.72
2022-11-18T19:10:05.549Z,9.74
2022-11-18T19:12:44.164Z,9.76
2022-11-18T19:15:11.515Z,9.76
2022-11-18T19:17:37.965Z,9.76
2022-11-18T19:20:23.395Z,9.76
2022-11-18T19:22:49.892Z,9.76
2022-11-18T19:25:16.304Z,9.72
2022-11-18T19:27:42.683Z,9.69
2022-11-18T19:30:10.259Z,9.67
2022-11-18T19:32:37.498Z,9.68
2022-11-18T19:35:04.665Z,9.74
2022-11-18T19:37:31.919Z,9.68
2022-11-18T19:40:07.144Z,9.62
2022-11-18T19:42:37.591Z,9.55
2022-11-18T19:45:04.201Z,9.55
2022-11-18T19:47:30.645Z,9.56
2022-11-18T19:49:57.091Z,9.57
2022-11-18T19:52:23.599Z,9.57
2022-11-18T19:54:50.007Z,9.61
2022-11-18T19:57:16.509Z,9.65
2022-11-18T19:59:42.943Z,9.68
2022-11-18T20:02:10.437Z,9.64
2022-11-18T20:04:36.914Z,9.64
2022-11-18T20:07:03.453Z,9.61
2022-11-18T20:09:30.007Z,9.62
2022-11-18T20:11:56.407Z,9.62
2022-11-18T20:14:22.877Z,9.61
2022-11-18T20:16:51.544Z,9.60
2022-11-18T20:19:18.121Z,9.57
2022-11-18T20:21:44.763Z,9.57
2022-11-18T20:24:15.828Z,9.57
2022-11-18T20:26:42.757Z,9.60
2022-11-18T20:29:09.350Z,9.56
2022-11-18T20:31:36.492Z,9.54
2022-11-18T20:34:03.522Z,9.53
2022-11-18T20:36:31.281Z,9.56
2022-11-18T20:39:02.822Z,9.59
2022-11-18T20:41:31.596Z,9.63
2022-11-18T20:43:58.555Z,9.61
2022-11-18T20:46:25.366Z,9.59
2022-11-18T20:48:52.003Z,9.54
2022-11-18T20:51:25.791Z,9.47
2022-11-18T20:53:52.857Z,9.43
2022-11-18T20:56:20.799Z,9.42
2022-11-18T20:58:47.520Z,9.33
2022-11-18T21:01:21.742Z,9.29
2022-11-18T21:03:49.247Z,9.37
2022-11-18T21:06:15.784Z,9.41
2022-11-18T21:08:42.531Z,9.41
2022-11-18T21:11:10.007Z,9.50
2022-11-18T21:13:55.719Z,9.48
2022-11-18T21:16:22.321Z,9.49
2022-11-18T21:18:48.735Z,9.40
2022-11-18T21:21:33.945Z,9.32
2022-11-18T21:24:01.000Z,9.24
2022-11-18T21:26:28.761Z,9.14
2022-11-18T21:28:56.042Z,9.15
2022-11-18T21:31:23.567Z,9.11
2022-11-18T21:33:50.547Z,9.08
2022-11-18T21:36:17.700Z,9.00
2022-11-18T21:38:44.438Z,8.87
2022-11-18T21:41:11.039Z,8.88
2022-11-18T21:44:06.778Z,8.92
2022-11-18T21:46:25.166Z,8.84
2022-11-18T21:48:57.069Z,8.79
2022-11-18T21:51:26.345Z,8.78
2022-11-18T21:53:52.735Z,8.76
2022-11-18T21:56:20.996Z,8.62
2022-11-18T21:58:48.275Z,8.54
2022-11-18T22:01:21.939Z,8.54
2022-11-18T22:03:55.000Z,8.46
2022-11-18T22:06:22.412Z,8.48
2022-11-18T22:08:48.833Z,8.49
2022-11-18T22:11:15.817Z,8.47
2022-11-18T22:13:42.798Z,8.51
2022-11-18T22:16:17.591Z,8.50
2022-11-18T22:18:44.925Z,8.52
2022-11-18T22:21:12.826Z,8.47
2022-11-18T22:23:39.514Z,8.45
2022-11-18T22:26:08.745Z,8.49
2022-11-18T22:28:35.808Z,8.56
2022-11-18T22:31:06.595Z,8.60
2022-11-18T22:33:33.471Z,8.57
2022-11-18T22:36:04.480Z,8.55
2022-11-18T22:38:31.385Z,8.58
2022-11-18T22:41:08.210Z,8.58
2022-11-18T22:43:35.071Z,8.59
2022-11-18T22:46:02.830Z,8.61
2022-11-18T22:48:29.418Z,8.65
2022-11-18T22:50:56.675Z,8.60
2022-11-18T22:53:23.176Z,8.60
2022-11-18T22:55:49.539Z,8.58
2022-11-18T22:58:15.928Z,8.56
2022-11-18T23:00:42.324Z,8.60
2022-11-18T23:03:08.840Z,8.56
2022-11-18T23:05:36.308Z,8.61
2022-11-18T23:08:02.816Z,8.66
2022-11-18T23:10:30.072Z,8.62
2022-11-18T23:13:15.330Z,8.55
2022-11-18T23:15:41.747Z,8.50
2022-11-18T23:18:11.546Z,8.57
2022-11-18T23:20:38.258Z,8.61
2022-11-18T23:23:04.626Z,8.61
2022-11-18T23:25:31.571Z,8.46
2022-11-18T23:27:57.971Z,8.42
2022-11-18T23:30:24.337Z,8.44
2022-11-18T23:32:52.323Z,8.45
2022-11-18T23:35:18.741Z,8.36
2022-11-18T23:37:45.094Z,8.37
2022-11-18T23:40:11.765Z,8.27
2022-11-18T23:42:38.125Z,8.25
2022-11-18T23:45:05.586Z,8.29
2022-11-18T23:47:32.140Z,8.24
2022-11-18T23:49:58.540Z,8.22
2022-11-18T23:52:24.924Z,8.18
2022-11-18T23:54:52.972Z,8.16
2022-11-18T23:57:19.413Z,8.20
2022-11-18T23:59:45.915Z,8.19
